Atlas — SV6729 — position and weather

sailwx.info

Track history (hours):
 
Tides and Currents Weather Stations Pressure Air Temp Water Temp Dewpoint Dewpoint Depression Visibility Wind Speed Wind Dir Waves Ship Positions

Atlas

Last reported at 2015-Mar-06 05:33 UTC. Time now 2015-Mar-06 06:07 UTC.
Position N 37°57' E 023°36'.

Length 29 m; draft 5 m.

Type: Tug. MMSI: 239611000.

Date/timePositionNaut miles runAvg speedWind from/ knotsBaromVisibWave heightAir tempDewpointWater temp
2015-Mar-06 05:33N 37°57' E 023°36'0 0.3
2015-Mar-06 04:26N 37°57' E 023°37'0 0.0
2015-Mar-05 12:31N 37°57' E 023°37'0 0.0
2015-Mar-05 11:28N 37°57' E 023°37'0 0.0
2015-Mar-05 10:30N 37°57' E 023°37'0 0.0
2015-Mar-05 09:33N 37°57' E 023°37'0 0.4
2015-Mar-05 08:33N 37°57' E 023°36'2 2.2
2015-Mar-05 07:32N 37°57' E 023°33'0 0.4
2015-Mar-05 06:34N 37°57' E 023°34'2 2.1
2015-Mar-05 05:33N 37°57' E 023°37'1 0.7
2015-Mar-05 04:31N 37°57' E 023°36'1 0.0
2015-Mar-04 11:27N 37°57' E 023°37'0 0.0
2015-Mar-04 10:18N 37°57' E 023°37'3 4.2
2015-Mar-04 09:33N 37°58' E 023°33'4 3.8
2015-Mar-04 08:30N 38°02' E 023°32'0 0.0
2015-Mar-04 07:11N 38°02' E 023°32'0 0.1
2015-Mar-04 06:30N 38°02' E 023°32'2 1.8
2015-Mar-04 05:33N 38°00' E 023°33'4 4.1
2015-Mar-04 04:30N 37°57' E 023°37'0 0.0
2015-Mar-04 03:33N 37°57' E 023°37'0 0.0
2015-Mar-04 02:32N 37°57' E 023°37'0 0.0
2015-Mar-04 01:31N 37°57' E 023°37'0 0.0
2015-Mar-04 00:26N 37°57' E 023°37'0 0.0
2015-Mar-03 23:29N 37°57' E 023°37'0 0.0
2015-Mar-03 22:31N 37°57' E 023°37'0 0.0
2015-Mar-03 21:33N 37°57' E 023°37'0 0.0
2015-Mar-03 20:31N 37°57' E 023°37'0 0.0
2015-Mar-03 19:32N 37°57' E 023°37'0 0.0
2015-Mar-03 18:31N 37°57' E 023°37'0 0.0
2015-Mar-03 17:33N 37°57' E 023°37'0 0.0
2015-Mar-03 16:24N 37°57' E 023°37'3 3.7
2015-Mar-03 15:33N 37°58' E 023°33'1 0.7
2015-Mar-03 14:33N 37°59' E 023°33'3 3.1
2015-Mar-03 13:30N 38°02' E 023°31'1 1.4
2015-Mar-03 12:34N 38°02' E 023°32'0 0.2
2015-Mar-03 10:13N 38°02' E 023°33'1 1.6
2015-Mar-03 09:33N 38°01' E 023°32'1 0.8
2015-Mar-03 08:19N 38°01' E 023°31'5 6.2
2015-Mar-03 07:33N 37°57' E 023°35'2 1.2
2015-Mar-03 06:16N 37°57' E 023°37'1 1.4
2015-Mar-03 05:33N 37°57' E 023°35'1 0.9
2015-Mar-03 04:28N 37°57' E 023°37'0 0.0
2015-Mar-02 12:18N 37°57' E 023°37'6 8.1
2015-Mar-02 11:33N 38°01' E 023°31'6 5.9
2015-Mar-02 10:33N 37°57' E 023°37'0 0.0
2015-Mar-02 09:25N 37°57' E 023°37'1 1.0
2015-Mar-02 08:33N 37°57' E 023°36'1 1.0
2015-Mar-02 07:33N 37°57' E 023°35'4 4.1
2015-Mar-02 06:31N 38°02' E 023°36'4 3.9
2015-Mar-02 05:33N 37°59' E 023°33'2 2.1
2015-Mar-02 04:31N 37°57' E 023°35'1 1.1
2015-Mar-02 03:30N 37°57' E 023°37'0 0.0
2015-Mar-02 02:31N 37°57' E 023°37'0 0.0
2015-Mar-02 01:31N 37°57' E 023°37'0 0.0
2015-Mar-02 00:31N 37°57' E 023°37'0 0.0
2015-Mar-01 23:24N 37°57' E 023°37'0 0.0
2015-Mar-01 22:32N 37°57' E 023°37'0 0.0
2015-Mar-01 21:28N 37°57' E 023°37'0 0.0
2015-Mar-01 20:27N 37°57' E 023°37'0 0.0
2015-Mar-01 19:30N 37°57' E 023°37'0 0.0
2015-Mar-01 18:32N 37°57' E 023°37'0 0.0
2015-Mar-01 17:31N 37°57' E 023°37'0 0.0
2015-Mar-01 16:27N 37°57' E 023°37'0 0.0
2015-Mar-01 15:30N 37°57' E 023°37'0 0.0
2015-Mar-01 14:24N 37°57' E 023°37'0 0.0
2015-Mar-01 13:30N 37°57' E 023°37'0 0.0
2015-Mar-01 12:28N 37°57' E 023°37'0 0.0
2015-Mar-01 11:24N 37°57' E 023°37'0 0.0
2015-Mar-01 10:17N 37°57' E 023°37'0 0.0
2015-Mar-01 09:31N 37°57' E 023°37'0 0.0
2015-Mar-01 08:26N 37°57' E 023°37'0 0.0
2015-Mar-01 07:23N 37°57' E 023°37'0 0.0
2015-Mar-01 06:33N 37°57' E 023°37'0 0.0
2015-Mar-01 05:29N 37°57' E 023°37'0 0.0
2015-Mar-01 04:33N 37°57' E 023°37'0 0.0
2015-Mar-01 03:28N 37°57' E 023°37'0 0.0
2015-Mar-01 02:30N 37°57' E 023°37'1 0.6
2015-Mar-01 01:31N 37°57' E 023°36'1 0.6
2015-Mar-01 00:33N 37°57' E 023°37'0 0.0
2015-Feb-28 23:33N 37°57' E 023°37'1 0.7
2015-Feb-28 22:33N 37°57' E 023°36'0 0.4
2015-Feb-28 21:31N 37°57' E 023°36'0 0.0
2015-Feb-28 20:24N 37°57' E 023°36'0 0.5
2015-Feb-28 19:29N 37°57' E 023°36'0 0.0
2015-Feb-28 18:33N 37°57' E 023°36'0 0.1
2015-Feb-28 17:33N 37°57' E 023°36'1 0.7
2015-Feb-28 16:32N 37°57' E 023°37'3 3.5
2015-Feb-28 15:33N 37°59' E 023°33'0 0.2
2015-Feb-28 14:33N 37°59' E 023°33'3 3.0
2015-Feb-28 13:29N 37°57' E 023°37'0 0.0
2015-Feb-28 12:31N 37°57' E 023°37'0 0.0
2015-Feb-28 11:22N 37°57' E 023°37'0 0.0
2015-Feb-28 10:32N 37°57' E 023°37'1 0.7
2015-Feb-28 09:30N 37°57' E 023°36'0 0.2
2015-Feb-28 08:27N 37°57' E 023°36'1 0.6
2015-Feb-28 07:32N 37°57' E 023°37'0 0.0
2015-Feb-28 06:33N 37°57' E 023°37'0 0.0
2015-Feb-28 05:30N 37°57' E 023°37'0 0.0
2015-Feb-28 04:30N 37°57' E 023°37'3 0.3
2015-Feb-27 19:33N 37°58' E 023°33'4 3.6
2015-Feb-27 18:33N 38°01' E 023°35'4 3.6
2015-Feb-27 17:21N 37°57' E 023°37'0 0.0
2015-Feb-27 16:26N 37°57' E 023°37'0 0.0
2015-Feb-27 15:29N 37°57' E 023°37'1 1.4
2015-Feb-27 14:33N 37°57' E 023°35'1 1.3
2015-Feb-27 13:30N 37°57' E 023°37'0 0.0
2015-Feb-27 12:18N 37°57' E 023°37'0 0.0
2015-Feb-26 19:32N 37°57' E 023°37'0 0.0
2015-Feb-26 18:28N 37°57' E 023°37'0 0.0
2015-Feb-26 17:28N 37°57' E 023°37'0 0.0
2015-Feb-26 16:30N 37°57' E 023°37'0 0.0
2015-Feb-26 15:27N 37°57' E 023°37'0 0.0
2015-Feb-26 14:25N 37°57' E 023°37'0 0.3
2015-Feb-26 13:33N 37°57' E 023°36'0 0.1
2015-Feb-26 12:33N 37°57' E 023°36'0 0.0
2015-Feb-25 20:27N 37°58' E 023°36'0 0.0
2015-Feb-25 19:32N 37°58' E 023°36'0 0.3
2015-Feb-25 18:33N 37°57' E 023°37'0 0.0
2015-Feb-25 17:32N 37°57' E 023°37'4 3.8
2015-Feb-25 16:25N 38°02' E 023°36'0 0.3
2015-Feb-25 15:33N 38°02' E 023°35'4 4.1
2015-Feb-25 14:27N 37°57' E 023°37'1 1.1
2015-Feb-25 13:33N 37°57' E 023°35'0 0.5
2015-Feb-25 12:33N 37°57' E 023°36'0 0.0
2015-Feb-24 20:31N 37°57' E 023°37'1 1.1
2015-Feb-24 19:32N 37°57' E 023°35'1 0.9
2015-Feb-24 18:33N 37°57' E 023°36'0 0.2
2015-Feb-24 17:33N 37°58' E 023°36'0 0.3
2015-Feb-24 16:23N 37°57' E 023°37'0 0.0
2015-Feb-24 15:27N 37°57' E 023°37'0 0.0
2015-Feb-24 14:32N 37°57' E 023°37'0 0.0
2015-Feb-24 13:32N 37°57' E 023°37'0 0.0
2015-Feb-24 12:28N 37°57' E 023°37'  
Track history (hours):
 
Tides and Currents Weather Stations Pressure Air Temp Water Temp Dewpoint Dewpoint Depression Visibility Wind Speed Wind Dir Waves Ship Positions

Atlas

Last reported at 2015-Mar-06 05:33 UTC. Time now 2015-Mar-06 06:07 UTC.
Position N 37°57' E 023°36'.

Length 29 m; draft 5 m.

Type: Tug. MMSI: 239611000.

Date/timePositionNaut miles runAvg speedWind from/ knotsBaromVisibWave heightAir tempDewpointWater temp
2015-Mar-06 05:33N 37°57' E 023°36'0 0.3
2015-Mar-06 04:26N 37°57' E 023°37'0 0.0
2015-Mar-05 12:31N 37°57' E 023°37'0 0.0
2015-Mar-05 11:28N 37°57' E 023°37'0 0.0
2015-Mar-05 10:30N 37°57' E 023°37'0 0.0
2015-Mar-05 09:33N 37°57' E 023°37'0 0.4
2015-Mar-05 08:33N 37°57' E 023°36'2 2.2
2015-Mar-05 07:32N 37°57' E 023°33'0 0.4
2015-Mar-05 06:34N 37°57' E 023°34'2 2.1
2015-Mar-05 05:33N 37°57' E 023°37'1 0.7
2015-Mar-05 04:31N 37°57' E 023°36'1 0.0
2015-Mar-04 11:27N 37°57' E 023°37'0 0.0
2015-Mar-04 10:18N 37°57' E 023°37'3 4.2
2015-Mar-04 09:33N 37°58' E 023°33'4 3.8
2015-Mar-04 08:30N 38°02' E 023°32'0 0.0
2015-Mar-04 07:11N 38°02' E 023°32'0 0.1
2015-Mar-04 06:30N 38°02' E 023°32'2 1.8
2015-Mar-04 05:33N 38°00' E 023°33'4 4.1
2015-Mar-04 04:30N 37°57' E 023°37'0 0.0
2015-Mar-04 03:33N 37°57' E 023°37'0 0.0
2015-Mar-04 02:32N 37°57' E 023°37'0 0.0
2015-Mar-04 01:31N 37°57' E 023°37'0 0.0
2015-Mar-04 00:26N 37°57' E 023°37'0 0.0
2015-Mar-03 23:29N 37°57' E 023°37'0 0.0
2015-Mar-03 22:31N 37°57' E 023°37'0 0.0
2015-Mar-03 21:33N 37°57' E 023°37'0 0.0
2015-Mar-03 20:31N 37°57' E 023°37'0 0.0
2015-Mar-03 19:32N 37°57' E 023°37'0 0.0
2015-Mar-03 18:31N 37°57' E 023°37'0 0.0
2015-Mar-03 17:33N 37°57' E 023°37'0 0.0
2015-Mar-03 16:24N 37°57' E 023°37'3 3.7
2015-Mar-03 15:33N 37°58' E 023°33'1 0.7
2015-Mar-03 14:33N 37°59' E 023°33'3 3.1
2015-Mar-03 13:30N 38°02' E 023°31'1 1.4
2015-Mar-03 12:34N 38°02' E 023°32'0 0.2
2015-Mar-03 10:13N 38°02' E 023°33'1 1.6
2015-Mar-03 09:33N 38°01' E 023°32'1 0.8
2015-Mar-03 08:19N 38°01' E 023°31'5 6.2
2015-Mar-03 07:33N 37°57' E 023°35'2 1.2
2015-Mar-03 06:16N 37°57' E 023°37'1 1.4
2015-Mar-03 05:33N 37°57' E 023°35'1 0.9
2015-Mar-03 04:28N 37°57' E 023°37'0 0.0
2015-Mar-02 12:18N 37°57' E 023°37'6 8.1
2015-Mar-02 11:33N 38°01' E 023°31'6 5.9
2015-Mar-02 10:33N 37°57' E 023°37'0 0.0
2015-Mar-02 09:25N 37°57' E 023°37'1 1.0
2015-Mar-02 08:33N 37°57' E 023°36'1 1.0
2015-Mar-02 07:33N 37°57' E 023°35'4 4.1
2015-Mar-02 06:31N 38°02' E 023°36'4 3.9
2015-Mar-02 05:33N 37°59' E 023°33'2 2.1
2015-Mar-02 04:31N 37°57' E 023°35'1 1.1
2015-Mar-02 03:30N 37°57' E 023°37'0 0.0
2015-Mar-02 02:31N 37°57' E 023°37'0 0.0
2015-Mar-02 01:31N 37°57' E 023°37'0 0.0
2015-Mar-02 00:31N 37°57' E 023°37'0 0.0
2015-Mar-01 23:24N 37°57' E 023°37'0 0.0
2015-Mar-01 22:32N 37°57' E 023°37'0 0.0
2015-Mar-01 21:28N 37°57' E 023°37'0 0.0
2015-Mar-01 20:27N 37°57' E 023°37'0 0.0
2015-Mar-01 19:30N 37°57' E 023°37'0 0.0
2015-Mar-01 18:32N 37°57' E 023°37'0 0.0
2015-Mar-01 17:31N 37°57' E 023°37'0 0.0
2015-Mar-01 16:27N 37°57' E 023°37'0 0.0
2015-Mar-01 15:30N 37°57' E 023°37'0 0.0
2015-Mar-01 14:24N 37°57' E 023°37'0 0.0
2015-Mar-01 13:30N 37°57' E 023°37'0 0.0
2015-Mar-01 12:28N 37°57' E 023°37'0 0.0
2015-Mar-01 11:24N 37°57' E 023°37'0 0.0
2015-Mar-01 10:17N 37°57' E 023°37'0 0.0
2015-Mar-01 09:31N 37°57' E 023°37'0 0.0
2015-Mar-01 08:26N 37°57' E 023°37'0 0.0
2015-Mar-01 07:23N 37°57' E 023°37'0 0.0
2015-Mar-01 06:33N 37°57' E 023°37'0 0.0
2015-Mar-01 05:29N 37°57' E 023°37'0 0.0
2015-Mar-01 04:33N 37°57' E 023°37'0 0.0
2015-Mar-01 03:28N 37°57' E 023°37'0 0.0
2015-Mar-01 02:30N 37°57' E 023°37'1 0.6
2015-Mar-01 01:31N 37°57' E 023°36'1 0.6
2015-Mar-01 00:33N 37°57' E 023°37'0 0.0
2015-Feb-28 23:33N 37°57' E 023°37'1 0.7
2015-Feb-28 22:33N 37°57' E 023°36'0 0.4
2015-Feb-28 21:31N 37°57' E 023°36'0 0.0
2015-Feb-28 20:24N 37°57' E 023°36'0 0.5
2015-Feb-28 19:29N 37°57' E 023°36'0 0.0
2015-Feb-28 18:33N 37°57' E 023°36'0 0.1
2015-Feb-28 17:33N 37°57' E 023°36'1 0.7
2015-Feb-28 16:32N 37°57' E 023°37'3 3.5
2015-Feb-28 15:33N 37°59' E 023°33'0 0.2
2015-Feb-28 14:33N 37°59' E 023°33'3 3.0
2015-Feb-28 13:29N 37°57' E 023°37'0 0.0
2015-Feb-28 12:31N 37°57' E 023°37'0 0.0
2015-Feb-28 11:22N 37°57' E 023°37'0 0.0
2015-Feb-28 10:32N 37°57' E 023°37'1 0.7
2015-Feb-28 09:30N 37°57' E 023°36'0 0.2
2015-Feb-28 08:27N 37°57' E 023°36'1 0.6
2015-Feb-28 07:32N 37°57' E 023°37'0 0.0
2015-Feb-28 06:33N 37°57' E 023°37'0 0.0
2015-Feb-28 05:30N 37°57' E 023°37'0 0.0
2015-Feb-28 04:30N 37°57' E 023°37'3 0.3
2015-Feb-27 19:33N 37°58' E 023°33'4 3.6
2015-Feb-27 18:33N 38°01' E 023°35'4 3.6
2015-Feb-27 17:21N 37°57' E 023°37'0 0.0
2015-Feb-27 16:26N 37°57' E 023°37'0 0.0
2015-Feb-27 15:29N 37°57' E 023°37'1 1.4
2015-Feb-27 14:33N 37°57' E 023°35'1 1.3
2015-Feb-27 13:30N 37°57' E 023°37'0 0.0
2015-Feb-27 12:18N 37°57' E 023°37'0 0.0
2015-Feb-26 19:32N 37°57' E 023°37'0 0.0
2015-Feb-26 18:28N 37°57' E 023°37'0 0.0
2015-Feb-26 17:28N 37°57' E 023°37'0 0.0
2015-Feb-26 16:30N 37°57' E 023°37'0 0.0
2015-Feb-26 15:27N 37°57' E 023°37'0 0.0
2015-Feb-26 14:25N 37°57' E 023°37'0 0.3
2015-Feb-26 13:33N 37°57' E 023°36'0 0.1
2015-Feb-26 12:33N 37°57' E 023°36'0 0.0
2015-Feb-25 20:27N 37°58' E 023°36'0 0.0
2015-Feb-25 19:32N 37°58' E 023°36'0 0.3
2015-Feb-25 18:33N 37°57' E 023°37'0 0.0
2015-Feb-25 17:32N 37°57' E 023°37'4 3.8
2015-Feb-25 16:25N 38°02' E 023°36'0 0.3
2015-Feb-25 15:33N 38°02' E 023°35'4 4.1
2015-Feb-25 14:27N 37°57' E 023°37'1 1.1
2015-Feb-25 13:33N 37°57' E 023°35'0 0.5
2015-Feb-25 12:33N 37°57' E 023°36'0 0.0
2015-Feb-24 20:31N 37°57' E 023°37'1 1.1
2015-Feb-24 19:32N 37°57' E 023°35'1 0.9
2015-Feb-24 18:33N 37°57' E 023°36'0 0.2
2015-Feb-24 17:33N 37°58' E 023°36'0 0.3
2015-Feb-24 16:23N 37°57' E 023°37'0 0.0
2015-Feb-24 15:27N 37°57' E 023°37'0 0.0
2015-Feb-24 14:32N 37°57' E 023°37'0 0.0
2015-Feb-24 13:32N 37°57' E 023°37'0 0.0
2015-Feb-24 12:28N 37°57' E 023°37'  

Dump ship's entire track history